createdAt,value
2017-11-25T00:00:07.923Z,63.40
2017-11-25T00:02:36.051Z,63.50
2017-11-25T00:05:04.171Z,63.40
2017-11-25T00:07:32.295Z,63.50
2017-11-25T00:10:01.192Z,63.70
2017-11-25T00:12:30.085Z,63.60
2017-11-25T00:14:58.221Z,63.50
2017-11-25T00:17:26.355Z,63.50
2017-11-25T00:19:54.482Z,63.50
2017-11-25T00:22:23.384Z,63.70
2017-11-25T00:24:52.273Z,63.70
2017-11-25T00:27:21.148Z,63.80
2017-11-25T00:29:49.272Z,63.80
2017-11-25T00:32:17.409Z,63.50
2017-11-25T00:34:45.560Z,63.50
2017-11-25T00:37:13.682Z,63.30
2017-11-25T00:39:41.799Z,63.40
2017-11-25T00:42:09.903Z,63.70
2017-11-25T00:44:38.819Z,63.90
2017-11-25T00:47:06.928Z,63.90
2017-11-25T00:49:35.061Z,64.10
2017-11-25T00:52:03.185Z,63.90
2017-11-25T00:54:31.348Z,63.80
2017-11-25T00:56:59.442Z,64.50
2017-11-25T00:59:28.343Z,64.70
2017-11-25T01:01:57.209Z,64.00
2017-11-25T01:04:26.118Z,64.00
2017-11-25T01:06:54.288Z,64.00
2017-11-25T01:09:22.402Z,64.10
2017-11-25T01:11:50.536Z,63.50
2017-11-25T01:14:18.648Z,64.20
2017-11-25T01:16:46.767Z,64.20
2017-11-25T01:19:14.904Z,64.30
2017-11-25T01:21:43.011Z,64.20
2017-11-25T01:24:11.145Z,64.00
2017-11-25T01:26:39.295Z,64.00
2017-11-25T01:29:07.412Z,64.10
2017-11-25T01:31:35.551Z,64.00
2017-11-25T01:34:03.693Z,64.10
2017-11-25T01:36:32.600Z,64.50
2017-11-25T01:39:00.736Z,64.50
2017-11-25T01:41:29.621Z,65.10
2017-11-25T01:43:57.755Z,64.50
2017-11-25T01:46:25.886Z,64.70
2017-11-25T01:48:54.768Z,64.60
2017-11-25T01:51:23.654Z,64.80
2017-11-25T01:53:52.580Z,65.10
2017-11-25T01:56:20.717Z,65.00
2017-11-25T01:58:48.830Z,64.90
2017-11-25T02:01:16.987Z,65.80
2017-11-25T02:03:45.129Z,64.90
2017-11-25T02:06:13.241Z,65.00
2017-11-25T02:08:41.348Z,65.10
2017-11-25T02:11:09.488Z,65.00
2017-11-25T02:13:37.607Z,65.10
2017-11-25T02:16:05.735Z,65.10
2017-11-25T02:18:33.892Z,64.90
2017-11-25T02:21:02.017Z,64.80
2017-11-25T02:23:30.323Z,64.80
2017-11-25T02:25:59.215Z,65.00
2017-11-25T02:28:27.380Z,65.00
2017-11-25T02:30:56.263Z,65.10
2017-11-25T02:33:25.166Z,65.10
2017-11-25T02:35:54.061Z,65.20
2017-11-25T02:38:22.244Z,65.10
2017-11-25T02:40:50.359Z,65.10
2017-11-25T02:43:18.470Z,65.20
2017-11-25T02:45:47.458Z,65.30
2017-11-25T02:48:16.337Z,65.40
2017-11-25T02:50:44.472Z,65.30
2017-11-25T02:53:12.608Z,65.30
2017-11-25T02:55:40.727Z,65.30
2017-11-25T02:58:08.840Z,65.40
2017-11-25T03:00:38.718Z,65.50
2017-11-25T03:03:06.829Z,65.50
2017-11-25T03:05:34.960Z,65.50
2017-11-25T03:08:03.079Z,66.10
2017-11-25T03:10:31.211Z,65.30
2017-11-25T03:12:59.333Z,65.20
2017-11-25T03:15:27.445Z,65.30
2017-11-25T03:17:55.561Z,65.40
2017-11-25T03:20:23.686Z,65.40
2017-11-25T03:22:51.792Z,65.40
2017-11-25T03:25:20.704Z,65.50
2017-11-25T03:27:49.570Z,65.40
2017-11-25T03:30:18.504Z,65.30
2017-11-25T03:32:46.616Z,65.30
2017-11-25T03:35:14.741Z,65.30
2017-11-25T03:37:42.874Z,66.00
2017-11-25T03:40:11.087Z,65.30
2017-11-25T03:42:39.996Z,65.60
2017-11-25T03:45:08.120Z,65.60
2017-11-25T03:47:37.118Z,65.60
2017-11-25T03:50:06.026Z,65.50
2017-11-25T03:52:34.180Z,65.50
2017-11-25T03:55:03.064Z,65.90
2017-11-25T03:57:31.932Z,65.80
2017-11-25T04:00:00.075Z,65.80
2017-11-25T04:02:28.200Z,65.80
2017-11-25T04:04:57.085Z,66.10
2017-11-25T04:07:25.984Z,66.10
2017-11-25T04:09:54.875Z,66.30
2017-11-25T04:12:23.776Z,66.30
2017-11-25T04:14:51.894Z,66.30
2017-11-25T04:17:20.022Z,66.20
2017-11-25T04:19:48.139Z,66.30
2017-11-25T04:22:16.255Z,66.30
2017-11-25T04:24:45.156Z,66.80
2017-11-25T04:27:13.287Z,66.80
2017-11-25T04:29:41.919Z,66.70
2017-11-25T04:32:10.037Z,66.50
2017-11-25T04:34:38.145Z,66.40
2017-11-25T04:37:06.278Z,66.40
2017-11-25T04:39:34.398Z,66.30
2017-11-25T04:42:02.526Z,66.40
2017-11-25T04:44:30.632Z,66.50
2017-11-25T04:46:58.771Z,66.60
2017-11-25T04:49:26.929Z,66.50
2017-11-25T04:51:55.073Z,66.40
2017-11-25T04:54:23.184Z,66.30
2017-11-25T04:56:51.315Z,66.30
2017-11-25T04:59:19.429Z,66.20
2017-11-25T05:01:47.549Z,66.20
2017-11-25T05:04:15.675Z,66.10
2017-11-25T05:06:45.331Z,66.00
2017-11-25T05:09:14.216Z,65.90
2017-11-25T05:11:42.349Z,65.90
2017-11-25T05:14:10.476Z,65.90
2017-11-25T05:16:38.588Z,65.80
2017-11-25T05:19:06.720Z,65.80
2017-11-25T05:21:34.833Z,65.70
2017-11-25T05:24:02.976Z,65.70
2017-11-25T05:26:31.086Z,65.80
2017-11-25T05:28:59.298Z,65.80
2017-11-25T05:31:28.159Z,66.10
2017-11-25T05:33:57.067Z,66.50
2017-11-25T05:36:25.179Z,66.40
2017-11-25T05:38:53.368Z,66.40
2017-11-25T05:41:21.490Z,66.60
2017-11-25T05:43:50.633Z,66.50
2017-11-25T05:46:18.756Z,66.40
2017-11-25T05:48:46.917Z,66.40
2017-11-25T05:51:15.780Z,67.10
2017-11-25T05:53:43.903Z,66.40
2017-11-25T05:56:12.043Z,66.70
2017-11-25T05:58:40.935Z,66.80
2017-11-25T06:01:09.912Z,66.80
2017-11-25T06:03:38.810Z,66.90
2017-11-25T06:06:07.693Z,66.90
2017-11-25T06:08:36.581Z,67.30
2017-11-25T06:11:05.471Z,66.90
2017-11-25T06:13:34.371Z,66.90
2017-11-25T06:16:03.263Z,66.90
2017-11-25T06:18:32.157Z,67.00
2017-11-25T06:21:01.039Z,67.00
2017-11-25T06:23:29.925Z,67.30
2017-11-25T06:25:58.815Z,67.60
2017-11-25T06:28:27.700Z,67.30
2017-11-25T06:30:55.832Z,67.30
2017-11-25T06:33:23.960Z,67.30
2017-11-25T06:35:52.849Z,67.60
2017-11-25T06:38:21.001Z,68.20
2017-11-25T06:40:49.119Z,67.60
2017-11-25T06:43:17.264Z,67.60
2017-11-25T06:45:46.178Z,67.80
2017-11-25T06:48:14.276Z,67.80
2017-11-25T06:50:42.400Z,67.70
2017-11-25T06:53:11.338Z,67.90
2017-11-25T06:55:39.458Z,67.90
2017-11-25T06:58:08.361Z,68.20
2017-11-25T07:00:37.281Z,68.20
2017-11-25T07:03:05.405Z,68.20
2017-11-25T07:05:33.529Z,68.40
2017-11-25T07:08:01.636Z,68.40
2017-11-25T07:10:29.756Z,68.30
2017-11-25T07:12:57.881Z,68.60
2017-11-25T07:15:26.011Z,68.80
2017-11-25T07:17:55.010Z,68.70
2017-11-25T07:20:23.141Z,68.60
2017-11-25T07:22:52.016Z,68.40
2017-11-25T07:25:21.001Z,68.60
2017-11-25T07:27:49.908Z,68.60
2017-11-25T07:30:18.040Z,68.60
2017-11-25T07:32:46.177Z,68.50
2017-11-25T07:35:14.290Z,69.10
2017-11-25T07:37:42.410Z,69.50
2017-11-25T07:40:10.544Z,69.60
2017-11-25T07:42:38.672Z,69.30
2017-11-25T07:45:06.795Z,69.10
2017-11-25T07:47:35.727Z,69.20
2017-11-25T07:50:03.869Z,69.20
2017-11-25T07:52:32.750Z,68.90
2017-11-25T07:55:01.636Z,68.70
2017-11-25T07:57:30.506Z,68.50
2017-11-25T07:59:58.672Z,68.60
2017-11-25T08:02:26.800Z,68.50
2017-11-25T08:04:54.943Z,68.50
2017-11-25T08:07:23.102Z,68.30
2017-11-25T08:09:51.219Z,68.20
2017-11-25T08:12:19.334Z,68.20
2017-11-25T08:14:47.501Z,68.10
2017-11-25T08:17:15.608Z,68.00
2017-11-25T08:19:44.502Z,67.90
2017-11-25T08:22:13.434Z,67.70
2017-11-25T08:24:41.575Z,67.60
2017-11-25T08:27:10.458Z,67.30
2017-11-25T08:29:39.375Z,67.70
2017-11-25T08:32:07.505Z,67.00
2017-11-25T08:34:35.669Z,66.60
2017-11-25T08:37:03.871Z,66.70
2017-11-25T08:39:32.775Z,66.70
2017-11-25T08:42:00.897Z,66.70
2017-11-25T08:44:29.033Z,66.80
2017-11-25T08:46:57.172Z,66.80
2017-11-25T08:49:25.280Z,66.80
2017-11-25T08:51:53.420Z,66.80
2017-11-25T08:54:22.301Z,66.60
2017-11-25T08:56:51.201Z,66.50
2017-11-25T08:59:20.160Z,66.20
2017-11-25T09:01:48.289Z,66.20
2017-11-25T09:04:16.418Z,66.40
2017-11-25T09:06:44.550Z,66.60
2017-11-25T09:09:12.665Z,66.90
2017-11-25T09:11:40.809Z,67.10
2017-11-25T09:14:08.951Z,66.80
2017-11-25T09:16:37.052Z,66.40
2017-11-25T09:19:05.198Z,66.00
2017-11-25T09:21:33.597Z,66.00
2017-11-25T09:24:01.780Z,65.50
2017-11-25T09:26:29.913Z,65.50
2017-11-25T09:28:58.026Z,65.10
2017-11-25T09:31:26.168Z,65.30
2017-11-25T09:33:54.311Z,65.70
2017-11-25T09:36:22.458Z,66.10
2017-11-25T09:38:50.579Z,66.70
2017-11-25T09:41:18.699Z,67.10
2017-11-25T09:43:46.818Z,68.20
2017-11-25T09:59:09.661Z,72.80
2017-11-25T10:01:37.793Z,72.80
2017-11-25T10:04:06.686Z,74.00
2017-11-25T10:06:35.606Z,74.30
2017-11-25T10:09:03.727Z,74.20
2017-11-25T10:11:31.859Z,74.30
2017-11-25T10:14:00.007Z,74.70
2017-11-25T10:16:28.927Z,74.00
2017-11-25T10:18:57.224Z,74.00
2017-11-25T10:21:25.356Z,74.70
2017-11-25T10:23:53.485Z,74.10
2017-11-25T10:26:21.655Z,74.20
2017-11-25T10:28:49.802Z,74.30
2017-11-25T10:31:17.944Z,74.40
2017-11-25T10:33:46.047Z,74.50
2017-11-25T10:36:14.183Z,74.70
2017-11-25T10:38:43.081Z,75.00
2017-11-25T10:41:11.269Z,75.00
2017-11-25T10:43:39.386Z,75.00
2017-11-25T10:46:08.310Z,74.20
2017-11-25T10:48:36.440Z,74.20
2017-11-25T10:51:04.563Z,74.10
2017-11-25T10:53:32.696Z,74.80
2017-11-25T10:56:01.586Z,73.90
2017-11-25T10:58:30.530Z,73.20
2017-11-25T11:00:58.644Z,73.20
2017-11-25T11:03:26.774Z,73.10
2017-11-25T11:05:54.909Z,72.00
2017-11-25T11:08:23.816Z,71.60
2017-11-25T11:10:51.926Z,71.60
2017-11-25T11:13:20.099Z,71.80
2017-11-25T11:15:48.243Z,72.30
2017-11-25T11:18:16.369Z,72.70
2017-11-25T11:20:44.479Z,72.50
2017-11-25T11:23:12.625Z,72.70
2017-11-25T11:25:40.723Z,72.70
2017-11-25T11:28:08.874Z,73.00
2017-11-25T11:30:37.775Z,74.50
2017-11-25T11:33:06.638Z,74.70
2017-11-25T11:35:34.768Z,74.70
2017-11-25T11:38:02.935Z,74.60
2017-11-25T11:40:31.062Z,74.80
2017-11-25T11:43:00.009Z,76.60
2017-11-25T11:45:28.104Z,76.50
2017-11-25T11:47:56.235Z,77.00
2017-11-25T11:50:24.488Z,77.00
2017-11-25T11:52:52.608Z,76.80
2017-11-25T11:55:20.739Z,76.00
2017-11-25T11:57:49.628Z,75.50
2017-11-25T12:00:18.542Z,75.90
2017-11-25T12:02:46.668Z,75.90
2017-11-25T12:05:14.792Z,75.40
2017-11-25T12:07:42.958Z,75.50
2017-11-25T12:10:11.144Z,75.80
2017-11-25T12:12:39.266Z,75.70
2017-11-25T12:15:07.361Z,76.20
2017-11-25T12:17:36.277Z,76.70
2017-11-25T12:20:04.417Z,76.70
2017-11-25T12:22:33.329Z,77.10
2017-11-25T12:25:01.520Z,77.00
2017-11-25T12:27:29.647Z,76.70
2017-11-25T12:29:57.764Z,76.50
2017-11-25T12:32:25.936Z,75.80
2017-11-25T12:34:54.069Z,75.50
2017-11-25T12:37:22.229Z,75.00
2017-11-25T12:39:50.389Z,74.70
2017-11-25T12:42:18.524Z,74.90
2017-11-25T12:44:46.660Z,75.20
2017-11-25T12:47:15.578Z,75.40
2017-11-25T12:52:18.141Z,74.70
2017-11-25T12:54:46.303Z,75.40
2017-11-25T12:57:14.484Z,75.90
2017-11-25T12:59:43.374Z,75.90
2017-11-25T13:02:12.281Z,75.70
2017-11-25T13:04:40.400Z,75.80
2017-11-25T13:07:08.550Z,75.20
2017-11-25T13:09:36.652Z,75.10
2017-11-25T13:12:04.821Z,75.00
2017-11-25T13:14:32.930Z,75.30
2017-11-25T13:17:01.837Z,75.70
2017-11-25T13:19:30.007Z,75.70
2017-11-25T13:21:59.015Z,74.90
2017-11-25T13:24:27.141Z,74.70
2017-11-25T13:26:56.029Z,75.30
2017-11-25T13:29:24.159Z,74.50
2017-11-25T13:31:52.280Z,75.20
2017-11-25T13:34:21.175Z,75.60
2017-11-25T13:36:50.075Z,76.00
2017-11-25T13:39:18.977Z,75.20
2017-11-25T13:41:47.088Z,75.20
2017-11-25T13:44:15.280Z,75.10
2017-11-25T13:46:43.404Z,74.50
2017-11-25T13:49:11.522Z,74.20
2017-11-25T13:51:39.649Z,74.40
2017-11-25T13:54:07.780Z,74.50
2017-11-25T13:56:36.661Z,75.10
2017-11-25T13:59:04.792Z,75.10
2017-11-25T14:01:32.946Z,75.00
2017-11-25T14:04:01.099Z,75.00
2017-11-25T14:06:30.104Z,74.60
2017-11-25T14:08:58.270Z,74.60
2017-11-25T14:11:27.154Z,74.90
2017-11-25T14:13:56.025Z,75.10
2017-11-25T14:16:24.936Z,76.10
2017-11-25T14:18:53.823Z,75.50
2017-11-25T14:21:22.715Z,75.30
2017-11-25T14:23:51.600Z,75.10
2017-11-25T14:26:20.516Z,75.50
2017-11-25T14:28:48.616Z,75.50
2017-11-25T14:31:16.744Z,75.90
2017-11-25T14:36:22.610Z,75.10
2017-11-25T14:38:51.506Z,74.70
2017-11-25T14:41:20.418Z,75.40
2017-11-25T14:43:48.530Z,75.40
2017-11-25T14:46:16.696Z,74.90
2017-11-25T14:48:44.912Z,75.40
2017-11-25T14:51:13.129Z,75.70
2017-11-25T14:53:41.265Z,75.60
2017-11-25T14:56:09.400Z,76.20
2017-11-25T14:58:37.539Z,76.40
2017-11-25T15:01:05.651Z,76.10
2017-11-25T15:03:34.571Z,76.70
2017-11-25T15:06:02.721Z,76.00
2017-11-25T15:08:31.613Z,75.70
2017-11-25T15:11:00.516Z,75.60
2017-11-25T15:13:29.401Z,75.60
2017-11-25T15:15:58.316Z,75.40
2017-11-25T15:18:26.475Z,75.40
2017-11-25T15:20:54.661Z,75.80
2017-11-25T15:23:23.516Z,76.20
2017-11-25T15:25:52.404Z,76.10
2017-11-25T15:28:20.595Z,76.10
2017-11-25T15:30:49.483Z,76.00
2017-11-25T15:33:18.398Z,76.10
2017-11-25T15:35:46.531Z,76.10
2017-11-25T15:38:14.677Z,75.90
2017-11-25T15:40:42.816Z,75.30
2017-11-25T15:43:10.973Z,75.70
2017-11-25T15:45:39.870Z,75.40
2017-11-25T15:48:08.032Z,75.40
2017-11-25T15:50:36.912Z,74.80
2017-11-25T15:53:05.847Z,74.70
2017-11-25T15:55:33.949Z,74.70
2017-11-25T15:58:02.102Z,74.70
2017-11-25T16:00:30.209Z,74.90
2017-11-25T16:02:59.099Z,74.70
2017-11-25T16:05:27.990Z,74.50
2017-11-25T16:07:56.900Z,74.50
2017-11-25T16:10:25.068Z,74.50
2017-11-25T16:12:53.242Z,74.30
2017-11-25T16:15:22.310Z,75.30
2017-11-25T16:17:50.430Z,75.00
2017-11-25T16:20:18.567Z,75.30
2017-11-25T16:22:47.449Z,74.90
2017-11-25T16:25:16.361Z,75.00
2017-11-25T16:27:45.290Z,74.80
2017-11-25T16:30:13.450Z,74.80
2017-11-25T16:32:41.596Z,74.90
2017-11-25T16:35:10.540Z,75.20
2017-11-25T16:37:38.905Z,75.20
2017-11-25T16:40:07.031Z,74.90
2017-11-25T16:42:35.909Z,74.80
2017-11-25T16:45:04.803Z,74.90
2017-11-25T16:47:33.734Z,74.90
2017-11-25T16:50:01.832Z,74.50
2017-11-25T16:52:30.019Z,74.70
2017-11-25T16:54:58.176Z,74.60
2017-11-25T16:57:26.320Z,74.40
2017-11-25T16:59:54.475Z,74.40
2017-11-25T17:02:23.460Z,73.80
2017-11-25T17:04:52.343Z,73.30
2017-11-25T17:07:21.256Z,73.80
2017-11-25T17:09:51.774Z,73.80
2017-11-25T17:12:21.786Z,73.60
2017-11-25T17:14:49.976Z,73.60
2017-11-25T17:17:18.102Z,73.60
2017-11-25T17:19:46.231Z,73.50
2017-11-25T17:22:14.503Z,73.30
2017-11-25T17:24:42.599Z,73.20
2017-11-25T17:27:10.724Z,73.40
2017-11-25T17:29:38.852Z,73.50
2017-11-25T17:32:07.050Z,73.30
2017-11-25T17:34:35.157Z,73.30
2017-11-25T17:37:03.296Z,73.10
2017-11-25T17:39:32.205Z,73.20
2017-11-25T17:42:00.338Z,73.20
2017-11-25T17:44:28.480Z,73.30
2017-11-25T17:46:56.637Z,73.20
2017-11-25T17:49:24.747Z,72.90
2017-11-25T17:51:52.889Z,72.80
2017-11-25T17:54:21.041Z,72.50
2017-11-25T17:56:49.194Z,72.50
2017-11-25T17:59:18.121Z,72.60
2017-11-25T18:01:46.254Z,72.50
2017-11-25T18:04:14.451Z,72.20
2017-11-25T18:06:43.701Z,72.60
2017-11-25T18:09:11.856Z,72.40
2017-11-25T18:11:40.085Z,72.20
2017-11-25T18:14:09.051Z,72.50
2017-11-25T18:16:37.212Z,72.30
2017-11-25T18:19:05.377Z,72.50
2017-11-25T18:21:33.510Z,72.70
2017-11-25T18:24:02.069Z,72.40
2017-11-25T18:26:31.332Z,72.10
2017-11-25T18:29:00.713Z,72.10
2017-11-25T18:31:28.941Z,71.90
2017-11-25T18:33:57.976Z,72.20
2017-11-25T18:36:26.923Z,72.20
2017-11-25T18:38:55.283Z,72.30
2017-11-25T18:41:23.422Z,71.90
2017-11-25T18:43:51.586Z,71.60
2017-11-25T18:46:20.075Z,72.00
2017-11-25T18:48:49.033Z,71.90
2017-11-25T18:51:17.941Z,72.70
2017-11-25T18:53:46.123Z,72.10
2017-11-25T18:56:14.246Z,72.30
2017-11-25T18:58:43.087Z,72.30
2017-11-25T19:01:12.807Z,72.60
2017-11-25T19:03:40.918Z,72.50
2017-11-25T19:06:09.060Z,72.40
2017-11-25T19:08:37.173Z,72.60
2017-11-25T19:11:06.044Z,72.70
2017-11-25T19:13:34.203Z,72.70
2017-11-25T19:16:02.320Z,72.20
2017-11-25T19:18:31.252Z,71.80
2017-11-25T19:20:59.754Z,71.80
2017-11-25T19:23:27.880Z,71.90
2017-11-25T19:25:55.998Z,72.10
2017-11-25T19:28:24.232Z,72.10
2017-11-25T19:30:54.029Z,72.10
2017-11-25T19:33:22.192Z,72.10
2017-11-25T19:35:51.100Z,72.10
2017-11-25T19:38:19.232Z,72.00
2017-11-25T19:40:47.904Z,71.70
2017-11-25T19:43:17.237Z,71.40
2017-11-25T19:45:45.549Z,71.40
2017-11-25T19:48:13.901Z,71.40
2017-11-25T19:50:42.079Z,70.60
2017-11-25T19:53:10.250Z,70.60
2017-11-25T19:55:38.369Z,70.90
2017-11-25T19:58:06.732Z,71.00
2017-11-25T20:00:34.901Z,71.30
2017-11-25T20:03:03.108Z,71.00
2017-11-25T20:05:31.220Z,70.60
2017-11-25T20:08:00.116Z,70.60
2017-11-25T20:10:28.542Z,70.60
2017-11-25T20:12:56.678Z,70.90
2017-11-25T20:15:25.047Z,71.60
2017-11-25T20:17:55.295Z,72.80
2017-11-25T20:20:23.453Z,73.50
2017-11-25T20:22:51.610Z,73.40
2017-11-25T20:25:20.567Z,73.80
2017-11-25T20:27:48.760Z,73.90
2017-11-25T20:30:17.381Z,74.10
2017-11-25T20:32:45.653Z,73.60
2017-11-25T20:35:13.798Z,73.50
2017-11-25T20:37:42.667Z,74.10
2017-11-25T20:40:12.078Z,74.10
2017-11-25T20:42:40.214Z,74.70
2017-11-25T20:45:08.869Z,74.20
2017-11-25T20:47:38.619Z,74.70
2017-11-25T20:50:07.185Z,74.60
2017-11-25T20:52:36.194Z,74.60
2017-11-25T20:55:05.248Z,74.80
2017-11-25T20:57:33.677Z,74.70
2017-11-25T21:00:01.869Z,74.90
2017-11-25T21:02:30.039Z,74.80
2017-11-25T21:04:58.192Z,74.80
2017-11-25T21:07:26.518Z,74.80
2017-11-25T21:09:54.677Z,74.70
2017-11-25T21:12:22.790Z,74.50
2017-11-25T21:14:50.927Z,74.70
2017-11-25T21:17:19.820Z,75.40
2017-11-25T21:19:47.988Z,74.80
2017-11-25T21:22:16.845Z,74.30
2017-11-25T21:24:45.010Z,74.30
2017-11-25T21:27:13.161Z,74.70
2017-11-25T21:29:41.375Z,75.70
2017-11-25T21:32:09.576Z,74.90
2017-11-25T21:34:38.472Z,75.20
2017-11-25T21:37:06.636Z,75.20
2017-11-25T21:39:34.741Z,75.40
2017-11-25T21:42:02.877Z,75.70
2017-11-25T21:44:31.796Z,75.70
2017-11-25T21:46:59.943Z,75.60
2017-11-25T21:49:28.833Z,75.80
2017-11-25T21:51:57.855Z,75.90
2017-11-25T21:54:26.017Z,75.90
2017-11-25T21:56:54.135Z,75.90
2017-11-25T21:59:22.289Z,75.50
2017-11-25T22:01:50.396Z,75.00
2017-11-25T22:04:18.492Z,75.00
2017-11-25T22:06:46.619Z,75.20
2017-11-25T22:09:14.766Z,74.90
2017-11-25T22:11:42.894Z,74.40
2017-11-25T22:14:11.767Z,74.70
2017-11-25T22:16:39.901Z,74.00
2017-11-25T22:19:08.009Z,73.90
2017-11-25T22:21:36.153Z,74.00
2017-11-25T22:24:04.271Z,73.80
2017-11-25T22:26:33.153Z,72.80
2017-11-25T22:29:01.284Z,72.80
2017-11-25T22:31:29.438Z,72.60
2017-11-25T22:33:57.614Z,72.40
2017-11-25T22:36:25.744Z,72.50
2017-11-25T22:38:53.890Z,72.60
2017-11-25T22:41:22.022Z,73.30
2017-11-25T22:43:50.142Z,72.40
2017-11-25T22:46:18.388Z,72.60
2017-11-25T22:48:46.509Z,72.80
2017-11-25T22:51:15.385Z,73.40
2017-11-25T22:53:43.509Z,73.20
2017-11-25T22:56:11.621Z,72.90
2017-11-25T22:58:40.065Z,72.70
2017-11-25T23:01:09.040Z,72.60
2017-11-25T23:03:37.181Z,72.60
2017-11-25T23:06:10.578Z,73.30
2017-11-25T23:08:38.710Z,73.30
2017-11-25T23:11:06.936Z,73.10
2017-11-25T23:13:35.829Z,73.40
2017-11-25T23:16:04.766Z,73.50
2017-11-25T23:18:32.897Z,73.50
2017-11-25T23:21:02.018Z,73.80
2017-11-25T23:23:30.184Z,73.70
2017-11-25T23:25:58.309Z,73.70
2017-11-25T23:28:26.466Z,73.80
2017-11-25T23:30:54.605Z,73.60
2017-11-25T23:33:23.085Z,73.40
2017-11-25T23:35:51.700Z,73.60
2017-11-25T23:38:19.835Z,74.20
2017-11-25T23:40:48.014Z,73.70
2017-11-25T23:43:16.894Z,73.70
2017-11-25T23:45:45.752Z,73.20
2017-11-25T23:48:13.892Z,73.20
2017-11-25T23:50:42.142Z,72.30
2017-11-25T23:53:10.309Z,71.20
2017-11-25T23:55:38.427Z,70.90
2017-11-25T23:58:06.556Z,70.50
